Terminal Aerodrome Forecast
Issued by NWS Jackson, KY

Home | Current Version | Previous Version | Text Only | Print | Product List | Glossary On
Versions: 1 2 3 4 5 6 7 8 9 10 11 12 13 14 15 16 17 18 19 20 21 22
000
FTUS43 KJKL 151508 AAA
TAFLOZ
TAF AMD
KLOZ 151508Z 1515/1612 VRB03KT 4SM BR OVC003
     FM151700 00000KT P6SM OVC005
     FM152100 VRB03KT P6SM VCSH OVC015
     FM160400 06003KT 3SM -SHRA OVC005=

USA.gov is the U.S. government's official web portal to all federal, state and local government web resources and services.